createdAt,value
2019-04-07T00:02:11.066Z,17.30
2019-04-07T00:04:38.840Z,10.63
2019-04-07T00:07:06.883Z,12.90
2019-04-07T00:09:34.604Z,16.30
2019-04-07T00:12:02.381Z,12.20
2019-04-07T00:14:30.103Z,12.17
2019-04-07T00:16:57.853Z,13.30
2019-04-07T00:19:25.755Z,12.20
2019-04-07T00:21:53.999Z,12.97
2019-04-07T00:24:21.898Z,10.60
2019-04-07T00:26:49.709Z,9.07
2019-04-07T00:29:17.444Z,8.90
2019-04-07T00:31:45.112Z,11.87
2019-04-07T00:34:12.889Z,9.83
2019-04-07T00:36:40.596Z,8.33
2019-04-07T00:39:08.501Z,10.40
2019-04-07T00:41:36.447Z,7.70
2019-04-07T00:44:04.999Z,8.27
2019-04-07T00:46:33.234Z,11.33
2019-04-07T00:49:01.036Z,11.87
2019-04-07T00:51:28.742Z,12.40
2019-04-07T00:53:56.505Z,13.00
2019-04-07T00:56:24.697Z,13.97
2019-04-07T00:58:52.575Z,12.43
2019-04-07T01:01:20.718Z,15.80
2019-04-07T01:03:48.993Z,13.53
2019-04-07T01:06:16.761Z,14.03
2019-04-07T01:08:44.814Z,12.93
2019-04-07T01:11:12.612Z,15.67
2019-04-07T01:13:40.446Z,13.57
2019-04-07T01:16:08.176Z,14.50
2019-04-07T01:18:36.004Z,14.20
2019-04-07T01:21:03.813Z,12.23
2019-04-07T01:23:31.610Z,15.80
2019-04-07T01:25:59.316Z,14.03
2019-04-07T01:28:27.488Z,13.30
2019-04-07T01:30:55.325Z,12.57
2019-04-07T01:33:23.598Z,12.93
2019-04-07T01:35:51.350Z,11.53
2019-04-07T01:38:19.198Z,14.40
2019-04-07T01:40:56.556Z,13.57
2019-04-07T01:43:42.182Z,10.27
2019-04-07T01:46:27.961Z,10.70
2019-04-07T01:49:04.999Z,13.23
2019-04-07T01:51:55.519Z,15.43
2019-04-07T01:54:41.367Z,13.50
2019-04-07T01:57:32.312Z,12.30
2019-04-07T02:00:19.572Z,14.60
2019-04-07T02:03:19.578Z,16.03
2019-04-07T02:06:05.696Z,12.43
2019-04-07T02:08:51.741Z,11.77
2019-04-07T02:11:39.711Z,17.43
2019-04-07T02:14:17.214Z,14.97
2019-04-07T02:17:02.899Z,21.60
2019-04-07T02:19:37.070Z,17.07
2019-04-07T02:22:26.903Z,17.77
2019-04-07T02:25:05.433Z,16.00
2019-04-07T02:27:45.897Z,17.57
2019-04-07T02:30:41.886Z,17.23
2019-04-07T02:33:32.701Z,16.67
2019-04-07T02:36:17.951Z,15.63
2019-04-07T02:38:49.998Z,11.70
2019-04-07T02:41:42.618Z,16.80
2019-04-07T02:44:30.139Z,15.53
2019-04-07T02:47:22.929Z,12.10
2019-04-07T02:50:15.496Z,14.80
2019-04-07T02:53:17.634Z,11.20
2019-04-07T02:55:55.085Z,11.27
2019-04-07T02:58:44.968Z,12.30
2019-04-07T03:01:35.139Z,13.53
2019-04-07T03:04:34.581Z,10.93
2019-04-07T03:07:21.755Z,14.13
2019-04-07T03:10:11.700Z,9.70
2019-04-07T03:12:54.698Z,8.93
2019-04-07T03:15:57.769Z,9.33
2019-04-07T03:18:31.841Z,8.63
2019-04-07T03:21:13.189Z,10.13
2019-04-07T03:24:15.415Z,8.53
2019-04-07T03:27:03.041Z,10.83
2019-04-07T03:30:03.951Z,8.50
2019-04-07T03:32:54.126Z,8.37
2019-04-07T03:35:42.891Z,11.63
2019-04-07T03:38:28.208Z,9.23
2019-04-07T03:41:01.401Z,10.50
2019-04-07T03:43:34.654Z,7.20
2019-04-07T03:46:28.384Z,8.53
2019-04-07T03:49:02.370Z,8.57
2019-04-07T03:52:07.902Z,7.77
2019-04-07T03:55:10.281Z,8.33
2019-04-07T03:57:56.997Z,8.13
2019-04-07T04:01:33.899Z,8.70
2019-04-07T04:04:28.534Z,7.83
2019-04-07T04:07:26.631Z,8.67
2019-04-07T04:10:04.317Z,8.97
2019-04-07T04:12:37.429Z,8.33
2019-04-07T04:15:10.558Z,13.03
2019-04-07T04:17:39.071Z,10.57
2019-04-07T04:20:06.977Z,8.97
2019-04-07T04:22:35.643Z,8.00
2019-04-07T04:25:03.733Z,11.13
2019-04-07T04:27:31.494Z,10.93
2019-04-07T04:29:59.232Z,8.40
2019-04-07T04:32:27.123Z,9.13
2019-04-07T04:34:54.843Z,8.03
2019-04-07T04:37:37.834Z,7.90
2019-04-07T04:39:52.816Z,8.27
2019-04-07T04:42:20.817Z,12.17
2019-04-07T04:44:48.525Z,7.40
2019-04-07T04:47:16.687Z,7.37
2019-04-07T04:49:44.831Z,7.47
2019-04-07T04:52:13.570Z,10.43
2019-04-07T04:54:42.066Z,7.43
2019-04-07T04:57:09.957Z,12.97
2019-04-07T04:59:37.648Z,8.90
2019-04-07T05:02:05.688Z,10.03
2019-04-07T05:04:34.095Z,11.57
2019-04-07T05:07:01.950Z,11.57
2019-04-07T05:09:41.936Z,8.70
2019-04-07T05:11:59.473Z,10.80
2019-04-07T05:14:27.530Z,9.10
2019-04-07T05:16:55.965Z,10.03
2019-04-07T05:19:23.824Z,10.30
2019-04-07T05:21:51.619Z,9.17
2019-04-07T05:24:19.552Z,10.07
2019-04-07T05:26:47.744Z,9.03
2019-04-07T05:29:15.904Z,10.33
2019-04-07T05:31:43.904Z,12.67
2019-04-07T05:34:15.536Z,9.47
2019-04-07T05:36:41.273Z,7.90
2019-04-07T05:39:10.215Z,10.50
2019-04-07T05:41:38.455Z,9.87
2019-04-07T05:44:06.377Z,10.50
2019-04-07T05:46:38.647Z,29.70
2019-04-07T05:49:03.650Z,13.53
2019-04-07T05:51:31.378Z,14.03
2019-04-07T05:53:59.306Z,10.70
2019-04-07T05:56:28.410Z,9.83
2019-04-07T05:58:56.451Z,10.00
2019-04-07T06:01:24.709Z,8.63
2019-04-07T06:03:53.228Z,7.63
2019-04-07T06:06:21.569Z,9.33
2019-04-07T06:08:49.734Z,8.13
2019-04-07T06:11:17.588Z,10.30
2019-04-07T06:13:45.544Z,9.10
2019-04-07T06:16:14.016Z,8.00
2019-04-07T06:18:42.157Z,8.33
2019-04-07T06:21:10.205Z,10.20
2019-04-07T06:23:38.607Z,7.83
2019-04-07T06:26:09.964Z,12.43
2019-04-07T06:28:35.926Z,9.00
2019-04-07T06:31:03.684Z,8.53
2019-04-07T06:33:32.055Z,8.77
2019-04-07T06:36:00.444Z,9.60
2019-04-07T06:38:33.113Z,8.00
2019-04-07T06:41:00.781Z,7.67
2019-04-07T06:43:27.246Z,6.47
2019-04-07T06:46:22.665Z,7.67
2019-04-07T06:49:18.183Z,8.33
2019-04-07T06:52:12.107Z,6.30
2019-04-07T06:55:14.667Z,11.03
2019-04-07T06:57:53.754Z,7.27
2019-04-07T07:00:32.078Z,8.13
2019-04-07T07:03:10.409Z,10.70
2019-04-07T07:05:54.585Z,10.10
2019-04-07T07:08:46.778Z,8.33
2019-04-07T07:11:27.979Z,7.70
2019-04-07T07:14:02.163Z,7.57
2019-04-07T07:16:41.161Z,6.17
2019-04-07T07:19:19.689Z,6.87
2019-04-07T07:22:10.047Z,10.07
2019-04-07T07:24:34.872Z,7.80
2019-04-07T07:27:06.586Z,6.87
2019-04-07T07:29:32.206Z,7.23
2019-04-07T07:32:03.642Z,8.30
2019-04-07T07:34:29.517Z,6.70
2019-04-07T07:36:58.752Z,7.10
2019-04-07T07:39:27.218Z,6.30
2019-04-07T07:41:56.684Z,5.63
2019-04-07T07:44:24.621Z,9.20
2019-04-07T07:46:52.802Z,6.70
2019-04-07T07:49:21.314Z,9.10
2019-04-07T07:51:49.281Z,7.40
2019-04-07T07:54:17.296Z,9.03
2019-04-07T07:56:48.540Z,8.60
2019-04-07T08:01:47.059Z,7.60
2019-04-07T08:04:15.266Z,7.30
2019-04-07T08:06:43.605Z,7.60
2019-04-07T08:09:15.195Z,9.43
2019-04-07T08:11:40.887Z,6.10
2019-04-07T08:14:08.865Z,7.20
2019-04-07T08:16:37.297Z,6.67
2019-04-07T08:19:08.421Z,6.07
2019-04-07T08:21:35.139Z,6.77
2019-04-07T08:24:03.597Z,8.00
2019-04-07T08:26:31.853Z,7.87
2019-04-07T08:29:00.089Z,7.20
2019-04-07T08:31:28.258Z,5.70
2019-04-07T08:33:56.009Z,5.77
2019-04-07T08:36:23.832Z,8.83
2019-04-07T08:38:54.705Z,7.80
2019-04-07T08:41:21.105Z,6.43
2019-04-07T08:43:53.305Z,5.83
2019-04-07T08:46:18.853Z,6.20
2019-04-07T08:48:49.731Z,5.47
2019-04-07T08:51:16.231Z,5.80
2019-04-07T08:53:45.015Z,6.10
2019-04-07T08:56:12.999Z,5.70
2019-04-07T08:58:41.404Z,5.97
2019-04-07T09:01:09.719Z,5.37
2019-04-07T09:03:37.495Z,5.93
2019-04-07T09:06:06.159Z,6.03
2019-04-07T09:08:36.782Z,5.90
2019-04-07T09:11:14.589Z,5.97
2019-04-07T09:13:48.665Z,4.70
2019-04-07T09:16:35.939Z,6.10
2019-04-07T09:19:38.572Z,4.77
2019-04-07T09:22:23.243Z,4.67
2019-04-07T09:25:22.615Z,4.93
2019-04-07T09:28:10.067Z,7.27
2019-04-07T09:31:09.218Z,4.90
2019-04-07T09:33:51.820Z,5.00
2019-04-07T09:36:26.536Z,5.57
2019-04-07T09:39:12.330Z,5.27
2019-04-07T09:41:54.738Z,4.60
2019-04-07T09:44:38.971Z,4.50
2019-04-07T09:47:26.773Z,4.67
2019-04-07T09:50:16.509Z,4.17
2019-04-07T09:53:03.685Z,4.80
2019-04-07T09:55:49.451Z,4.77
2019-04-07T09:58:35.808Z,5.13
2019-04-07T10:01:38.905Z,5.27
2019-04-07T10:04:26.165Z,5.40
2019-04-07T10:07:19.325Z,5.33
2019-04-07T10:10:14.528Z,5.40
2019-04-07T10:12:58.197Z,4.87
2019-04-07T10:15:45.392Z,5.23
2019-04-07T10:18:36.724Z,5.40
2019-04-07T10:21:24.247Z,4.43
2019-04-07T10:24:10.177Z,4.03
2019-04-07T10:27:01.402Z,3.43
2019-04-07T10:29:49.212Z,4.00
2019-04-07T10:32:42.829Z,4.30
2019-04-07T10:35:36.018Z,4.17
2019-04-07T10:38:25.878Z,3.83
2019-04-07T10:41:09.408Z,4.20
2019-04-07T10:43:56.561Z,4.20
2019-04-07T10:46:47.252Z,5.00
2019-04-07T10:49:27.451Z,4.13
2019-04-07T10:52:17.057Z,4.35
2019-04-07T10:55:09.812Z,4.10
2019-04-07T10:57:45.076Z,3.90
2019-04-07T11:00:32.216Z,4.30
2019-04-07T11:03:22.945Z,6.07
2019-04-07T11:06:16.751Z,4.78
2019-04-07T11:09:13.224Z,4.83
2019-04-07T11:12:06.483Z,4.65
2019-04-07T11:14:54.712Z,4.77
2019-04-07T11:17:45.240Z,3.60
2019-04-07T11:20:30.028Z,3.70
2019-04-07T11:23:23.209Z,2.93
2019-04-07T11:26:00.614Z,3.85
2019-04-07T11:28:41.150Z,3.80
2019-04-07T11:31:23.234Z,3.33
2019-04-07T11:34:08.861Z,3.10
2019-04-07T11:36:57.056Z,4.07
2019-04-07T11:39:46.869Z,3.13
2019-04-07T11:42:37.177Z,4.70
2019-04-07T11:45:27.885Z,3.03
2019-04-07T11:48:14.393Z,2.47
2019-04-07T11:51:08.480Z,3.40
2019-04-07T11:53:42.561Z,3.00
2019-04-07T11:56:23.930Z,2.90
2019-04-07T11:59:10.175Z,2.57
2019-04-07T12:01:50.126Z,2.37
2019-04-07T12:04:36.557Z,3.17
2019-04-07T12:07:25.110Z,2.70
2019-04-07T12:10:18.190Z,2.97
2019-04-07T12:13:00.971Z,3.17
2019-04-07T12:15:46.577Z,5.20
2019-04-07T12:18:23.446Z,2.67
2019-04-07T12:21:24.340Z,2.60
2019-04-07T12:24:17.655Z,3.73
2019-04-07T12:27:04.875Z,2.93
2019-04-07T12:30:07.823Z,2.37
2019-04-07T12:32:41.817Z,4.10
2019-04-07T12:35:29.326Z,2.20
2019-04-07T12:38:34.999Z,1.30
2019-04-07T12:41:23.330Z,1.30
2019-04-07T12:43:59.525Z,2.53
2019-04-07T12:46:46.760Z,1.90
2019-04-07T12:49:45.533Z,2.77
2019-04-07T12:52:32.557Z,3.13
2019-04-07T12:55:23.274Z,3.87
2019-04-07T12:58:23.351Z,1.97
2019-04-07T13:01:14.159Z,2.30
2019-04-07T13:04:07.102Z,5.37
2019-04-07T13:06:53.434Z,3.33
2019-04-07T13:09:43.803Z,3.87
2019-04-07T13:12:36.605Z,2.87
2019-04-07T13:15:24.866Z,3.33
2019-04-07T13:18:06.454Z,2.50
2019-04-07T13:20:59.027Z,4.37
2019-04-07T13:23:42.689Z,5.03
2019-04-07T13:26:18.973Z,3.73
2019-04-07T13:29:09.633Z,2.73
2019-04-07T13:31:57.685Z,2.60
2019-04-07T13:35:02.817Z,3.00
2019-04-07T13:37:42.208Z,3.30
2019-04-07T13:40:29.595Z,5.90
2019-04-07T13:43:19.545Z,3.20
2019-04-07T13:46:16.824Z,4.57
2019-04-07T13:49:00.330Z,4.40
2019-04-07T13:51:47.245Z,3.67
2019-04-07T13:54:34.951Z,3.90
2019-04-07T13:57:26.110Z,4.03
2019-04-07T14:00:06.673Z,2.97
2019-04-07T14:02:57.091Z,2.67
2019-04-07T14:05:41.103Z,2.73
2019-04-07T14:08:41.554Z,2.90
2019-04-07T14:11:50.088Z,2.57
2019-04-07T14:14:30.319Z,2.43
2019-04-07T14:17:08.339Z,2.00
2019-04-07T14:19:54.084Z,2.97
2019-04-07T14:22:41.007Z,2.30
2019-04-07T14:25:30.988Z,2.67
2019-04-07T14:28:24.493Z,3.07
2019-04-07T14:31:09.258Z,2.37
2019-04-07T14:34:05.562Z,2.67
2019-04-07T14:36:50.468Z,2.43
2019-04-07T14:39:37.618Z,1.90
2019-04-07T14:42:13.310Z,3.60
2019-04-07T14:45:06.684Z,3.13
2019-04-07T14:47:42.620Z,1.50
2019-04-07T14:50:28.481Z,2.20
2019-04-07T14:53:10.910Z,1.97
2019-04-07T14:55:53.584Z,1.50
2019-04-07T14:58:41.240Z,1.73
2019-04-07T15:01:26.373Z,1.10
2019-04-07T15:03:54.569Z,1.43
2019-04-07T15:06:22.837Z,1.47
2019-04-07T15:09:07.207Z,1.60
2019-04-07T15:11:43.375Z,1.73
2019-04-07T15:14:11.629Z,1.53
2019-04-07T15:16:40.230Z,1.10
2019-04-07T15:19:08.407Z,1.50
2019-04-07T15:21:36.341Z,2.70
2019-04-07T15:24:07.234Z,1.57
2019-04-07T15:26:34.730Z,1.37
2019-04-07T15:29:07.147Z,1.17
2019-04-07T15:31:33.093Z,1.93
2019-04-07T15:34:01.220Z,1.90
2019-04-07T15:38:24.866Z,1.20
2019-04-07T15:40:51.688Z,1.27
2019-04-07T15:43:19.470Z,1.30
2019-04-07T15:45:48.634Z,3.73
2019-04-07T15:48:17.135Z,1.20
2019-04-07T15:50:45.456Z,2.37
2019-04-07T15:53:15.190Z,2.87
2019-04-07T15:55:49.876Z,0.90
2019-04-07T15:58:13.469Z,0.73
2019-04-07T16:00:41.937Z,1.27
2019-04-07T16:03:12.711Z,1.10
2019-04-07T16:05:43.447Z,5.13
2019-04-07T16:08:13.611Z,1.90
2019-04-07T16:10:42.429Z,1.40
2019-04-07T16:13:10.957Z,1.10
2019-04-07T16:15:38.851Z,2.43
2019-04-07T16:18:08.432Z,3.47
2019-04-07T16:20:40.089Z,4.13
2019-04-07T16:23:05.691Z,6.13
2019-04-07T16:25:34.239Z,1.73
2019-04-07T16:28:02.349Z,1.50
2019-04-07T16:30:30.425Z,1.93
2019-04-07T16:33:01.907Z,2.10
2019-04-07T16:35:27.868Z,1.97
2019-04-07T16:37:58.402Z,2.73
2019-04-07T16:40:25.233Z,1.57
2019-04-07T16:43:04.782Z,2.20
2019-04-07T16:45:22.529Z,1.30
2019-04-07T16:47:51.172Z,1.17
2019-04-07T16:50:20.660Z,2.40
2019-04-07T16:52:50.671Z,1.13
2019-04-07T16:55:38.071Z,1.30
2019-04-07T16:58:06.337Z,1.77
2019-04-07T17:00:34.470Z,2.43
2019-04-07T17:03:02.484Z,4.07
2019-04-07T17:05:30.282Z,1.90
2019-04-07T17:07:58.096Z,4.03
2019-04-07T17:10:28.741Z,3.53
2019-04-07T17:12:55.486Z,3.13
2019-04-07T17:15:23.241Z,2.70
2019-04-07T17:17:55.958Z,3.23
2019-04-07T17:20:44.188Z,3.50
2019-04-07T17:23:12.253Z,3.10
2019-04-07T17:25:41.728Z,3.50
2019-04-07T17:28:12.112Z,3.57
2019-04-07T17:30:39.554Z,2.93
2019-04-07T17:33:08.144Z,2.67
2019-04-07T17:35:36.978Z,4.93
2019-04-07T17:38:08.543Z,4.30
2019-04-07T17:40:44.906Z,12.57
2019-04-07T17:43:28.746Z,13.13
2019-04-07T17:46:25.799Z,9.90
2019-04-07T17:49:11.080Z,7.97
2019-04-07T17:52:11.205Z,4.23
2019-04-07T17:54:57.628Z,5.30
2019-04-07T17:57:34.841Z,4.13
2019-04-07T18:00:18.958Z,3.97
2019-04-07T18:03:14.193Z,3.83
2019-04-07T18:05:57.769Z,4.43
2019-04-07T18:08:44.222Z,3.47
2019-04-07T18:11:42.577Z,3.53
2019-04-07T18:14:34.440Z,3.40
2019-04-07T18:17:22.444Z,5.77
2019-04-07T18:20:08.297Z,4.43
2019-04-07T18:22:54.531Z,3.93
2019-04-07T18:25:43.081Z,4.03
2019-04-07T18:28:21.557Z,7.70
2019-04-07T18:31:20.993Z,10.17
2019-04-07T18:34:02.500Z,17.13
2019-04-07T18:36:45.907Z,15.23
2019-04-07T18:39:31.626Z,13.53
2019-04-07T18:42:34.939Z,16.00
2019-04-07T18:45:17.788Z,16.33
2019-04-07T18:48:02.275Z,14.00
2019-04-07T18:51:05.080Z,17.87
2019-04-07T18:54:00.074Z,22.23
2019-04-07T18:56:44.068Z,14.53
2019-04-07T18:59:50.052Z,13.00
2019-04-07T19:02:44.326Z,17.33
2019-04-07T19:05:24.742Z,20.30
2019-04-07T19:08:12.091Z,20.03
2019-04-07T19:10:51.565Z,21.50
2019-04-07T19:13:33.532Z,18.13
2019-04-07T19:16:24.181Z,14.30
2019-04-07T19:19:28.563Z,16.90
2019-04-07T19:22:27.428Z,13.72
2019-04-07T19:25:14.434Z,14.23
2019-04-07T19:28:03.717Z,12.03
2019-04-07T19:30:53.063Z,15.33
2019-04-07T19:33:46.266Z,22.30
2019-04-07T19:36:30.528Z,42.13
2019-04-07T19:39:14.753Z,58.80
2019-04-07T19:41:55.187Z,24.80
2019-04-07T19:44:55.435Z,17.50
2019-04-07T19:47:48.914Z,16.93
2019-04-07T19:50:54.941Z,21.50
2019-04-07T19:53:33.085Z,18.70
2019-04-07T19:56:18.935Z,20.00
2019-04-07T19:58:57.655Z,20.83
2019-04-07T20:01:48.013Z,25.40
2019-04-07T20:04:53.747Z,26.00
2019-04-07T20:07:41.994Z,27.93
2019-04-07T20:10:30.183Z,31.27
2019-04-07T20:13:17.729Z,32.93
2019-04-07T20:15:58.061Z,27.40
2019-04-07T20:18:44.565Z,27.33
2019-04-07T20:21:36.589Z,26.57
2019-04-07T20:24:19.325Z,27.30
2019-04-07T20:27:22.639Z,24.77
2019-04-07T20:29:58.195Z,23.43
2019-04-07T20:32:44.730Z,24.20
2019-04-07T20:35:31.497Z,23.77
2019-04-07T20:38:10.624Z,20.57
2019-04-07T20:40:47.886Z,21.93
2019-04-07T20:43:48.396Z,21.70
2019-04-07T20:46:36.012Z,20.40
2019-04-07T20:49:22.230Z,18.43
2019-04-07T20:52:10.369Z,20.80
2019-04-07T20:55:03.752Z,31.83
2019-04-07T20:57:51.337Z,28.00
2019-04-07T21:00:30.672Z,35.00
2019-04-07T21:03:25.593Z,33.70
2019-04-07T21:06:06.477Z,35.20
2019-04-07T21:08:45.539Z,34.70
2019-04-07T21:11:25.852Z,33.07
2019-04-07T21:14:11.708Z,34.23
2019-04-07T21:17:14.057Z,50.27
2019-04-07T21:20:13.317Z,40.93
2019-04-07T21:23:03.601Z,42.23
2019-04-07T21:25:52.062Z,33.87
2019-04-07T21:28:57.762Z,40.30
2019-04-07T21:31:46.724Z,36.53
2019-04-07T21:34:33.913Z,29.83
2019-04-07T21:37:23.927Z,31.10
2019-04-07T21:40:13.193Z,34.17
2019-04-07T21:43:09.570Z,35.87
2019-04-07T21:45:55.721Z,35.40
2019-04-07T21:48:43.253Z,29.47
2019-04-07T21:51:41.022Z,25.90
2019-04-07T21:54:37.570Z,17.53
2019-04-07T21:57:14.878Z,27.13
2019-04-07T22:00:05.052Z,19.90
2019-04-07T22:02:52.472Z,20.67
2019-04-07T22:05:43.285Z,26.80
2019-04-07T22:08:36.861Z,19.00
2019-04-07T22:11:04.727Z,21.87
2019-04-07T22:13:35.228Z,18.73
2019-04-07T22:16:04.091Z,19.07
2019-04-07T22:18:32.359Z,16.97
2019-04-07T22:21:01.229Z,14.23
2019-04-07T22:23:31.402Z,15.40
2019-04-07T22:25:59.108Z,15.17
2019-04-07T22:28:28.406Z,18.80
2019-04-07T22:30:57.288Z,31.50
2019-04-07T22:33:25.748Z,19.07
2019-04-07T22:35:54.529Z,13.00
2019-04-07T22:38:23.758Z,13.23
2019-04-07T22:40:52.164Z,16.40
2019-04-07T22:43:20.978Z,14.73
2019-04-07T22:45:59.300Z,13.70
2019-04-07T22:48:18.547Z,15.00
2019-04-07T22:50:46.298Z,13.83
2019-04-07T22:53:14.005Z,16.07
2019-04-07T22:55:42.087Z,15.47
2019-04-07T22:58:09.945Z,14.93
2019-04-07T23:00:38.269Z,13.70
2019-04-07T23:03:06.024Z,16.47
2019-04-07T23:05:33.964Z,18.90
2019-04-07T23:08:01.955Z,17.13
2019-04-07T23:10:29.879Z,14.00
2019-04-07T23:12:57.578Z,15.93
2019-04-07T23:15:37.430Z,19.70
2019-04-07T23:17:55.610Z,16.13
2019-04-07T23:20:23.511Z,16.63
2019-04-07T23:22:52.035Z,16.60
2019-04-07T23:25:22.602Z,15.53
2019-04-07T23:27:50.003Z,16.80
2019-04-07T23:30:21.449Z,14.23
2019-04-07T23:32:49.873Z,13.70
2019-04-07T23:35:17.813Z,17.43
2019-04-07T23:37:45.553Z,14.77
2019-04-07T23:40:14.075Z,12.40
2019-04-07T23:42:41.805Z,13.47
2019-04-07T23:45:10.311Z,11.33
2019-04-07T23:47:38.630Z,13.77
2019-04-07T23:50:07.036Z,13.50
2019-04-07T23:52:35.621Z,12.90
2019-04-07T23:55:04.261Z,11.60
2019-04-07T23:57:32.067Z,10.20
2019-04-07T23:59:59.781Z,7.93
